createdAt,value
2019-01-27T00:00:18.157Z,0.00
2019-01-27T00:01:18.149Z,0.00
2019-01-27T00:02:18.139Z,0.00
2019-01-27T00:03:18.587Z,0.00
2019-01-27T00:04:18.900Z,0.00
2019-01-27T00:05:18.117Z,0.00
2019-01-27T00:06:18.372Z,0.00
2019-01-27T00:07:18.105Z,0.00
2019-01-27T00:08:18.081Z,0.00
2019-01-27T00:09:18.061Z,0.00
2019-01-27T00:10:18.063Z,0.00
2019-01-27T00:11:18.059Z,0.00
2019-01-27T00:12:18.356Z,0.00
2019-01-27T00:13:18.108Z,0.00
2019-01-27T00:14:18.008Z,0.00
2019-01-27T00:15:18.003Z,0.00
2019-01-27T00:16:18.100Z,0.00
2019-01-27T00:17:17.975Z,0.00
2019-01-27T00:18:17.971Z,0.00
2019-01-27T00:19:18.128Z,0.00
2019-01-27T00:20:17.953Z,0.00
2019-01-27T00:21:17.938Z,0.00
2019-01-27T00:22:18.221Z,0.00
2019-01-27T00:23:17.936Z,0.00
2019-01-27T00:24:18.054Z,0.00
2019-01-27T00:25:17.898Z,0.00
2019-01-27T00:26:17.878Z,0.00
2019-01-27T00:27:17.867Z,0.00
2019-01-27T00:28:17.874Z,0.00
2019-01-27T00:29:18.034Z,0.00
2019-01-27T00:30:17.841Z,0.00
2019-01-27T00:31:17.819Z,0.00
2019-01-27T00:32:17.814Z,0.00
2019-01-27T00:33:17.937Z,0.00
2019-01-27T00:34:17.796Z,0.00
2019-01-27T00:35:18.040Z,0.00
2019-01-27T00:36:17.780Z,0.00
2019-01-27T00:37:17.780Z,0.00
2019-01-27T00:38:17.895Z,0.00
2019-01-27T00:39:18.118Z,0.00
2019-01-27T00:40:17.960Z,0.00
2019-01-27T00:41:17.721Z,0.00
2019-01-27T00:42:17.740Z,0.00
2019-01-27T00:43:17.720Z,0.00
2019-01-27T00:44:17.691Z,0.00
2019-01-27T00:45:17.691Z,0.00
2019-01-27T00:46:17.971Z,0.00
2019-01-27T00:47:17.660Z,0.00
2019-01-27T00:48:17.809Z,0.00
2019-01-27T00:49:18.463Z,0.00
2019-01-27T00:50:17.782Z,0.00
2019-01-27T00:51:19.795Z,0.00
2019-01-27T00:52:18.055Z,0.00
2019-01-27T00:53:38.691Z,0.00
2019-01-27T00:54:17.632Z,0.00
2019-01-27T00:55:17.605Z,0.00
2019-01-27T00:56:17.559Z,0.00
2019-01-27T00:57:17.551Z,0.00
2019-01-27T00:58:17.687Z,0.00
2019-01-27T00:59:17.540Z,0.00
2019-01-27T01:00:17.552Z,0.00
2019-01-27T01:01:17.529Z,0.00
2019-01-27T01:02:17.560Z,0.00
2019-01-27T01:03:17.650Z,0.00
2019-01-27T01:04:19.700Z,0.00
2019-01-27T01:05:17.656Z,0.00
2019-01-27T01:06:17.525Z,0.00
2019-01-27T01:07:17.705Z,0.00
2019-01-27T01:08:17.548Z,0.00
2019-01-27T01:09:17.965Z,0.00
2019-01-27T01:10:17.659Z,0.00
2019-01-27T01:11:17.391Z,0.00
2019-01-27T01:12:17.950Z,0.00
2019-01-27T01:13:17.365Z,0.00
2019-01-27T01:14:17.366Z,0.00
2019-01-27T01:15:17.715Z,0.00
2019-01-27T01:16:17.612Z,0.00
2019-01-27T01:17:17.329Z,0.00
2019-01-27T01:18:17.323Z,0.00
2019-01-27T01:19:17.302Z,0.00
2019-01-27T01:20:17.379Z,0.00
2019-01-27T01:21:17.279Z,0.00
2019-01-27T01:22:17.694Z,0.00
2019-01-27T01:23:17.259Z,0.00
2019-01-27T01:24:17.258Z,0.00
2019-01-27T01:25:17.241Z,0.00
2019-01-27T01:26:17.232Z,0.00
2019-01-27T01:27:17.225Z,0.00
2019-01-27T01:28:17.833Z,0.00
2019-01-27T01:29:17.192Z,0.00
2019-01-27T01:30:17.182Z,0.00
2019-01-27T01:31:17.170Z,0.00
2019-01-27T01:32:17.158Z,0.00
2019-01-27T01:33:17.162Z,0.00
2019-01-27T01:34:17.933Z,0.00
2019-01-27T01:35:17.137Z,0.00
2019-01-27T01:36:17.140Z,0.00
2019-01-27T01:37:17.115Z,0.00
2019-01-27T01:38:17.105Z,0.00
2019-01-27T01:39:17.179Z,0.00
2019-01-27T01:40:17.253Z,0.00
2019-01-27T01:41:17.078Z,0.00
2019-01-27T01:42:17.050Z,0.00
2019-01-27T01:43:17.054Z,0.00
2019-01-27T01:44:17.031Z,0.00
2019-01-27T01:45:17.223Z,0.00
2019-01-27T01:46:17.016Z,0.00
2019-01-27T01:47:17.020Z,0.00
2019-01-27T01:48:16.988Z,0.00
2019-01-27T01:49:17.149Z,0.00
2019-01-27T01:50:17.011Z,0.00
2019-01-27T01:51:16.955Z,0.00
2019-01-27T01:52:17.096Z,0.00
2019-01-27T01:53:16.942Z,0.00
2019-01-27T01:54:16.922Z,0.00
2019-01-27T01:55:16.923Z,0.00
2019-01-27T01:56:23.788Z,0.00
2019-01-27T01:57:16.905Z,0.00
2019-01-27T01:58:17.200Z,0.00
2019-01-27T01:59:17.067Z,0.00
2019-01-27T02:00:16.876Z,0.00
2019-01-27T02:01:16.855Z,0.00
2019-01-27T02:02:16.843Z,0.00
2019-01-27T02:03:16.829Z,0.00
2019-01-27T02:04:16.823Z,0.00
2019-01-27T02:05:16.953Z,0.00
2019-01-27T02:06:16.847Z,0.00
2019-01-27T02:07:16.797Z,0.00
2019-01-27T02:08:16.771Z,0.00
2019-01-27T02:09:17.119Z,0.00
2019-01-27T02:10:16.997Z,0.00
2019-01-27T02:11:16.787Z,0.00
2019-01-27T02:12:16.738Z,0.00
2019-01-27T02:13:16.856Z,0.00
2019-01-27T02:14:16.706Z,0.00
2019-01-27T02:15:16.757Z,0.00
2019-01-27T02:16:16.977Z,0.00
2019-01-27T02:17:16.710Z,0.00
2019-01-27T02:18:16.667Z,0.00
2019-01-27T02:19:16.668Z,0.00
2019-01-27T02:20:16.641Z,0.00
2019-01-27T02:21:16.665Z,0.00
2019-01-27T02:22:16.996Z,0.00
2019-01-27T02:23:18.415Z,0.00
2019-01-27T02:24:16.598Z,0.00
2019-01-27T02:25:16.593Z,0.00
2019-01-27T02:26:16.595Z,0.00
2019-01-27T02:27:16.567Z,0.00
2019-01-27T02:28:16.768Z,0.00
2019-01-27T02:29:16.545Z,0.00
2019-01-27T02:30:16.586Z,0.00
2019-01-27T02:31:16.524Z,0.00
2019-01-27T02:32:16.594Z,0.00
2019-01-27T02:33:16.519Z,0.00
2019-01-27T02:34:17.013Z,0.00
2019-01-27T02:35:16.479Z,0.00
2019-01-27T02:36:16.477Z,0.00
2019-01-27T02:37:16.463Z,0.00
2019-01-27T02:38:16.453Z,0.00
2019-01-27T02:39:16.450Z,0.00
2019-01-27T02:40:16.557Z,0.00
2019-01-27T02:41:16.412Z,0.00
2019-01-27T02:42:16.412Z,0.00
2019-01-27T02:43:16.406Z,0.00
2019-01-27T02:44:16.817Z,0.00
2019-01-27T02:45:16.515Z,0.00
2019-01-27T02:46:17.802Z,0.00
2019-01-27T02:47:16.367Z,0.00
2019-01-27T02:48:16.356Z,0.00
2019-01-27T02:49:16.341Z,0.00
2019-01-27T02:50:16.327Z,0.00
2019-01-27T02:51:16.693Z,0.00
2019-01-27T02:52:16.302Z,0.00
2019-01-27T02:53:16.288Z,0.00
2019-01-27T02:54:16.298Z,0.00
2019-01-27T02:55:16.266Z,0.00
2019-01-27T02:56:16.292Z,0.00
2019-01-27T02:57:16.561Z,0.00
2019-01-27T02:58:16.240Z,0.00
2019-01-27T02:59:16.232Z,0.00
2019-01-27T03:00:16.287Z,0.00
2019-01-27T03:01:16.515Z,0.00
2019-01-27T03:02:16.294Z,0.00
2019-01-27T03:03:16.174Z,0.00
2019-01-27T03:04:16.203Z,0.00
2019-01-27T03:05:16.429Z,0.00
2019-01-27T03:06:16.641Z,0.00
2019-01-27T03:07:16.460Z,0.00
2019-01-27T03:08:16.121Z,0.00
2019-01-27T03:09:16.125Z,0.00
2019-01-27T03:10:16.149Z,0.00
2019-01-27T03:11:16.111Z,0.00
2019-01-27T03:12:16.257Z,0.00
2019-01-27T03:13:16.068Z,0.00
2019-01-27T03:14:16.060Z,0.00
2019-01-27T03:15:16.053Z,0.00
2019-01-27T03:16:16.042Z,0.00
2019-01-27T03:17:16.061Z,0.00
2019-01-27T03:18:16.195Z,0.00
2019-01-27T03:19:16.155Z,0.00
2019-01-27T03:20:15.998Z,0.00
2019-01-27T03:21:15.991Z,0.00
2019-01-27T03:22:15.984Z,0.00
2019-01-27T03:23:15.986Z,0.00
2019-01-27T03:24:16.173Z,0.00
2019-01-27T03:25:15.993Z,0.00
2019-01-27T03:26:15.928Z,0.00
2019-01-27T03:27:15.920Z,0.00
2019-01-27T03:28:15.909Z,0.00
2019-01-27T03:29:15.898Z,0.00
2019-01-27T03:30:16.088Z,0.00
2019-01-27T03:31:15.879Z,0.00
2019-01-27T03:32:15.880Z,0.00
2019-01-27T03:33:15.855Z,0.00
2019-01-27T03:34:15.904Z,0.00
2019-01-27T03:35:15.843Z,0.00
2019-01-27T03:36:16.123Z,0.00
2019-01-27T03:37:15.983Z,0.00
2019-01-27T03:38:15.814Z,0.00
2019-01-27T03:39:15.807Z,0.00
2019-01-27T03:40:16.317Z,0.00
2019-01-27T03:41:16.113Z,0.00
2019-01-27T03:42:15.761Z,0.00
2019-01-27T03:43:15.746Z,0.00
2019-01-27T03:44:15.732Z,0.00
2019-01-27T03:45:15.741Z,0.00
2019-01-27T03:46:15.728Z,0.00
2019-01-27T03:47:17.773Z,0.00
2019-01-27T03:48:15.692Z,0.00
2019-01-27T03:49:15.742Z,0.00
2019-01-27T03:50:15.666Z,0.00
2019-01-27T03:51:15.758Z,0.00
2019-01-27T03:52:15.661Z,0.00
2019-01-27T03:53:16.127Z,0.00
2019-01-27T03:54:15.627Z,0.00
2019-01-27T03:55:17.217Z,0.00
2019-01-27T03:56:15.597Z,0.00
2019-01-27T03:57:15.592Z,0.00
2019-01-27T03:58:15.701Z,0.00
2019-01-27T03:59:15.815Z,0.00
2019-01-27T04:00:15.571Z,0.00
2019-01-27T04:01:15.555Z,0.00
2019-01-27T04:02:15.531Z,0.00
2019-01-27T04:03:15.525Z,0.00
2019-01-27T04:04:15.538Z,0.00
2019-01-27T04:05:15.744Z,0.00
2019-01-27T04:06:15.605Z,0.00
2019-01-27T04:07:15.508Z,0.00
2019-01-27T04:08:15.654Z,0.00
2019-01-27T04:09:15.786Z,0.00
2019-01-27T04:10:16.135Z,0.00
2019-01-27T04:11:15.512Z,0.00
2019-01-27T04:12:15.754Z,0.00
2019-01-27T04:13:15.497Z,0.00
2019-01-27T04:14:15.499Z,0.00
2019-01-27T04:15:15.503Z,0.00
2019-01-27T04:16:16.489Z,0.00
2019-01-27T04:17:15.377Z,0.00
2019-01-27T04:18:15.388Z,0.00
2019-01-27T04:19:15.704Z,0.00
2019-01-27T04:20:15.348Z,0.00
2019-01-27T04:21:15.353Z,0.00
2019-01-27T04:22:15.631Z,0.00
2019-01-27T04:23:18.803Z,0.00
2019-01-27T04:24:15.305Z,0.00
2019-01-27T04:25:16.589Z,0.00
2019-01-27T04:26:15.277Z,0.00
2019-01-27T04:27:15.277Z,0.00
2019-01-27T04:28:15.250Z,0.00
2019-01-27T04:29:15.265Z,0.00
2019-01-27T04:30:15.249Z,0.00
2019-01-27T04:31:16.242Z,0.00
2019-01-27T04:32:15.209Z,0.00
2019-01-27T04:33:15.215Z,0.00
2019-01-27T04:34:15.184Z,0.00
2019-01-27T04:35:15.195Z,0.00
2019-01-27T04:36:15.173Z,0.00
2019-01-27T04:37:15.934Z,0.00
2019-01-27T04:38:15.777Z,0.00
2019-01-27T04:39:15.179Z,0.00
2019-01-27T04:40:15.192Z,0.00
2019-01-27T04:41:15.145Z,0.00
2019-01-27T04:42:15.849Z,0.00
2019-01-27T04:43:15.090Z,0.00
2019-01-27T04:44:15.163Z,0.00
2019-01-27T04:45:15.077Z,0.00
2019-01-27T04:46:15.082Z,0.00
2019-01-27T04:47:15.059Z,0.00
2019-01-27T04:48:15.235Z,0.00
2019-01-27T04:49:15.020Z,0.00
2019-01-27T04:50:15.011Z,0.00
2019-01-27T04:51:15.006Z,0.00
2019-01-27T04:52:14.996Z,0.00
2019-01-27T04:53:14.988Z,0.00
2019-01-27T04:54:15.194Z,0.00
2019-01-27T04:55:14.955Z,0.00
2019-01-27T04:56:14.958Z,0.00
2019-01-27T04:57:14.978Z,0.00
2019-01-27T04:58:14.929Z,0.00
2019-01-27T04:59:16.198Z,0.00
2019-01-27T05:00:14.908Z,0.00
2019-01-27T05:01:15.140Z,0.00
2019-01-27T05:02:14.888Z,0.00
2019-01-27T05:03:14.889Z,0.00
2019-01-27T05:04:16.421Z,0.00
2019-01-27T05:05:14.848Z,0.00
2019-01-27T05:06:16.969Z,0.00
2019-01-27T05:07:14.993Z,0.00
2019-01-27T05:08:14.815Z,0.00
2019-01-27T05:09:14.829Z,0.00
2019-01-27T05:10:14.801Z,0.00
2019-01-27T05:11:14.788Z,0.00
2019-01-27T05:12:14.885Z,0.00
2019-01-27T05:13:15.073Z,0.00
2019-01-27T05:14:14.836Z,0.00
2019-01-27T05:15:14.740Z,0.00
2019-01-27T05:16:14.731Z,0.00
2019-01-27T05:17:14.742Z,0.00
2019-01-27T05:18:14.705Z,0.00
2019-01-27T05:19:15.049Z,0.00
2019-01-27T05:20:14.680Z,0.00
2019-01-27T05:21:14.678Z,0.00
2019-01-27T05:22:14.666Z,0.00
2019-01-27T05:23:14.646Z,0.00
2019-01-27T05:24:14.647Z,0.00
2019-01-27T05:25:14.967Z,0.00
2019-01-27T05:26:14.616Z,0.00
2019-01-27T05:27:15.910Z,0.00
2019-01-27T05:28:15.051Z,0.00
2019-01-27T05:29:14.584Z,0.00
2019-01-27T05:30:14.574Z,0.00
2019-01-27T05:31:14.703Z,0.00
2019-01-27T05:32:14.783Z,0.00
2019-01-27T05:33:14.558Z,0.00
2019-01-27T05:34:14.554Z,0.00
2019-01-27T05:35:14.521Z,0.00
2019-01-27T05:36:14.660Z,0.00
2019-01-27T05:37:14.498Z,0.00
2019-01-27T05:38:14.485Z,0.00
2019-01-27T05:39:14.484Z,0.00
2019-01-27T05:40:14.483Z,0.00
2019-01-27T05:41:14.650Z,0.00
2019-01-27T05:42:14.452Z,0.00
2019-01-27T05:43:14.436Z,0.00
2019-01-27T05:44:14.422Z,0.00
2019-01-27T05:45:14.416Z,0.00
2019-01-27T05:46:14.407Z,0.00
2019-01-27T05:47:14.545Z,0.00
2019-01-27T05:48:15.176Z,0.00
2019-01-27T05:49:14.369Z,0.00
2019-01-27T05:50:14.408Z,0.00
2019-01-27T05:51:14.371Z,0.00
2019-01-27T05:52:14.347Z,0.00
2019-01-27T05:53:14.453Z,0.00
2019-01-27T05:54:14.379Z,0.00
2019-01-27T05:55:14.354Z,0.00
2019-01-27T05:56:14.294Z,0.00
2019-01-27T05:57:29.118Z,0.00
2019-01-27T05:58:14.591Z,0.00
2019-01-27T05:59:14.262Z,0.00
2019-01-27T06:00:14.252Z,0.00
2019-01-27T06:01:14.458Z,0.00
2019-01-27T06:02:14.247Z,0.00
2019-01-27T06:03:14.631Z,0.00
2019-01-27T06:04:14.216Z,0.00
2019-01-27T06:05:14.343Z,0.00
2019-01-27T06:06:14.182Z,0.00
2019-01-27T06:07:14.228Z,0.00
2019-01-27T06:08:14.165Z,0.00
2019-01-27T06:09:14.681Z,0.00
2019-01-27T06:10:14.146Z,0.00
2019-01-27T06:11:14.127Z,0.00
2019-01-27T06:12:14.139Z,0.00
2019-01-27T06:13:14.117Z,0.00
2019-01-27T06:14:14.099Z,0.00
2019-01-27T06:15:14.779Z,0.00
2019-01-27T06:16:14.110Z,0.00
2019-01-27T06:17:14.059Z,0.00
2019-01-27T06:18:14.060Z,0.00
2019-01-27T06:19:14.051Z,0.00
2019-01-27T06:20:15.030Z,0.00
2019-01-27T06:21:14.034Z,0.00
2019-01-27T06:22:14.061Z,0.00
2019-01-27T06:23:14.007Z,0.00
2019-01-27T06:24:14.040Z,0.00
2019-01-27T06:25:14.019Z,4.00
2019-01-27T06:26:14.618Z,4.00
2019-01-27T06:27:13.961Z,4.00
2019-01-27T06:28:13.941Z,4.00
2019-01-27T06:29:13.934Z,4.00
2019-01-27T06:30:13.943Z,8.00
2019-01-27T06:31:14.094Z,4.00
2019-01-27T06:32:13.908Z,8.00
2019-01-27T06:33:13.890Z,8.00
2019-01-27T06:34:13.887Z,8.00
2019-01-27T06:35:14.027Z,12.00
2019-01-27T06:36:13.862Z,12.00
2019-01-27T06:37:14.092Z,16.00
2019-01-27T06:38:15.803Z,16.00
2019-01-27T06:39:13.854Z,16.00
2019-01-27T06:40:13.808Z,20.00
2019-01-27T06:41:13.809Z,20.00
2019-01-27T06:42:14.100Z,24.00
2019-01-27T06:43:13.788Z,28.00
2019-01-27T06:44:13.982Z,32.00
2019-01-27T06:45:13.766Z,36.00
2019-01-27T06:46:13.754Z,40.00
2019-01-27T06:47:13.734Z,40.00
2019-01-27T06:48:13.876Z,40.00
2019-01-27T06:49:13.975Z,48.00
2019-01-27T06:50:14.771Z,48.00
2019-01-27T06:51:13.720Z,52.00
2019-01-27T06:52:13.785Z,56.00
2019-01-27T06:53:13.676Z,60.00
2019-01-27T06:54:13.792Z,64.00
2019-01-27T06:55:13.991Z,68.00
2019-01-27T06:56:13.859Z,72.00
2019-01-27T06:57:13.657Z,84.00
2019-01-27T06:58:13.660Z,100.00
2019-01-27T06:59:14.504Z,116.00
2019-01-27T07:00:13.612Z,144.00
2019-01-27T07:01:13.799Z,176.00
2019-01-27T07:02:13.584Z,208.00
2019-01-27T07:03:13.569Z,224.00
2019-01-27T07:04:13.562Z,240.00
2019-01-27T07:05:13.551Z,252.00
2019-01-27T07:06:13.562Z,276.00
2019-01-27T07:07:13.744Z,288.00
2019-01-27T07:08:13.540Z,292.00
2019-01-27T07:09:13.707Z,296.00
2019-01-27T07:10:13.522Z,304.00
2019-01-27T07:11:13.657Z,320.00
2019-01-27T07:12:15.249Z,348.00
2019-01-27T07:13:14.198Z,372.00
2019-01-27T07:14:13.683Z,392.00
2019-01-27T07:15:13.738Z,404.00
2019-01-27T07:16:13.548Z,420.00
2019-01-27T07:17:13.548Z,444.00
2019-01-27T07:18:13.764Z,488.00
2019-01-27T07:19:13.464Z,548.00
2019-01-27T07:20:13.822Z,616.00
2019-01-27T07:21:13.446Z,680.00
2019-01-27T07:22:13.355Z,736.00
2019-01-27T07:23:13.351Z,756.00
2019-01-27T07:24:13.634Z,720.00
2019-01-27T07:25:13.669Z,664.00
2019-01-27T07:26:13.474Z,652.00
2019-01-27T07:27:13.300Z,692.00
2019-01-27T07:28:13.449Z,676.00
2019-01-27T07:29:13.286Z,628.00
2019-01-27T07:30:13.285Z,636.00
2019-01-27T07:31:14.077Z,688.00
2019-01-27T07:32:14.122Z,756.00
2019-01-27T07:33:13.240Z,752.00
2019-01-27T07:34:13.234Z,812.00
2019-01-27T07:35:13.236Z,868.00
2019-01-27T07:36:13.919Z,912.00
2019-01-27T07:37:13.202Z,924.00
2019-01-27T07:38:13.219Z,828.00
2019-01-27T07:39:13.179Z,788.00
2019-01-27T07:40:13.170Z,828.00
2019-01-27T07:41:13.150Z,868.00
2019-01-27T07:42:13.648Z,880.00
2019-01-27T07:43:13.742Z,872.00
2019-01-27T07:44:13.123Z,904.00
2019-01-27T07:45:13.115Z,932.00
2019-01-27T07:46:13.107Z,920.00
2019-01-27T07:47:13.122Z,908.00
2019-01-27T07:48:13.290Z,948.00
2019-01-27T07:49:13.066Z,1032.00
2019-01-27T07:50:13.058Z,1148.00
2019-01-27T07:51:13.046Z,1268.00
2019-01-27T07:52:13.033Z,1344.00
2019-01-27T07:53:13.021Z,1336.00
2019-01-27T07:54:13.175Z,1392.00
2019-01-27T07:55:13.001Z,1600.00
2019-01-27T07:56:12.996Z,1852.00
2019-01-27T07:57:13.014Z,2120.00
2019-01-27T07:58:12.993Z,2296.00
2019-01-27T07:59:13.152Z,2364.00
2019-01-27T08:00:13.602Z,2284.00
2019-01-27T08:01:13.870Z,2044.00
2019-01-27T08:02:13.250Z,1928.00
2019-01-27T08:03:12.940Z,1912.00
2019-01-27T08:04:12.904Z,1768.00
2019-01-27T08:05:12.899Z,1464.00
2019-01-27T08:06:13.011Z,1268.00
2019-01-27T08:07:12.886Z,1176.00
2019-01-27T08:08:12.873Z,1140.00
2019-01-27T08:09:12.849Z,1004.00
2019-01-27T08:10:15.200Z,836.00
2019-01-27T08:11:15.022Z,676.00
2019-01-27T08:12:16.216Z,560.00
2019-01-27T08:13:13.433Z,508.00
2019-01-27T08:14:12.812Z,460.00
2019-01-27T08:15:13.406Z,512.00
2019-01-27T08:16:12.785Z,672.00
2019-01-27T08:17:13.807Z,976.00
2019-01-27T08:18:12.759Z,1224.00
2019-01-27T08:19:13.753Z,1412.00
2019-01-27T08:20:12.760Z,1608.00
2019-01-27T08:21:12.748Z,1816.00
2019-01-27T08:22:12.711Z,2096.00
2019-01-27T08:23:13.767Z,2312.00
2019-01-27T08:24:12.698Z,2200.00
2019-01-27T08:25:12.686Z,2008.00
2019-01-27T08:26:12.683Z,2028.00
2019-01-27T08:27:12.651Z,2156.00
2019-01-27T08:28:12.776Z,2356.00
2019-01-27T08:29:12.640Z,2564.00
2019-01-27T08:30:12.623Z,2728.00
2019-01-27T08:31:12.977Z,2812.00
2019-01-27T08:32:12.640Z,2624.00
2019-01-27T08:33:15.186Z,2384.00
2019-01-27T08:34:12.698Z,2536.00
2019-01-27T08:35:12.570Z,2884.00
2019-01-27T08:36:12.585Z,3092.00
2019-01-27T08:37:12.558Z,3324.00
2019-01-27T08:38:12.542Z,3572.00
2019-01-27T08:39:21.693Z,3844.00
2019-01-27T08:40:13.792Z,4048.00
2019-01-27T08:41:13.261Z,5012.00
2019-01-27T08:42:12.527Z,6108.00
2019-01-27T08:43:12.559Z,6524.00
2019-01-27T08:44:12.580Z,6892.00
2019-01-27T08:45:12.575Z,7404.00
2019-01-27T08:46:12.706Z,8152.00
2019-01-27T08:47:12.445Z,6976.00
2019-01-27T08:48:12.440Z,6524.00
2019-01-27T08:49:12.475Z,7300.00
2019-01-27T08:50:12.579Z,7300.00
2019-01-27T08:51:12.674Z,6464.00
2019-01-27T08:52:12.953Z,5724.00
2019-01-27T08:53:12.435Z,5004.00
2019-01-27T08:54:12.366Z,4452.00
2019-01-27T08:55:12.355Z,4164.00
2019-01-27T08:56:12.465Z,3852.00
2019-01-27T08:57:12.325Z,3512.00
2019-01-27T08:58:12.318Z,3204.00
2019-01-27T08:59:12.319Z,2840.00
2019-01-27T09:00:12.564Z,2244.00
2019-01-27T09:01:12.289Z,1776.00
2019-01-27T09:02:12.679Z,1724.00
2019-01-27T09:03:12.268Z,1564.00
2019-01-27T09:04:12.310Z,1396.00
2019-01-27T09:05:12.261Z,1392.00
2019-01-27T09:06:12.312Z,1368.00
2019-01-27T09:07:12.955Z,1444.00
2019-01-27T09:08:12.963Z,1688.00
2019-01-27T09:09:12.212Z,2024.00
2019-01-27T09:10:12.567Z,2204.00
2019-01-27T09:11:12.975Z,2352.00
2019-01-27T09:12:13.677Z,2624.00
2019-01-27T09:13:12.614Z,2828.00
2019-01-27T09:14:14.267Z,3220.00
2019-01-27T09:15:13.018Z,4012.00
2019-01-27T09:16:12.367Z,4976.00
2019-01-27T09:17:12.409Z,5816.00
2019-01-27T09:18:12.102Z,6936.00
2019-01-27T09:19:12.092Z,8044.00
2019-01-27T09:20:19.599Z,7800.00
2019-01-27T09:21:12.091Z,7996.00
2019-01-27T09:22:12.087Z,8392.00
2019-01-27T09:23:12.453Z,9824.00
2019-01-27T09:24:12.249Z,11180.00
2019-01-27T09:25:12.028Z,11948.00
2019-01-27T09:26:12.552Z,11880.00
2019-01-27T09:27:12.012Z,13112.00
2019-01-27T09:28:12.040Z,14852.00
2019-01-27T09:29:11.976Z,13684.00
2019-01-27T09:30:12.172Z,11776.00
2019-01-27T09:31:12.047Z,10668.00
2019-01-27T09:32:11.960Z,11404.00
2019-01-27T09:33:16.634Z,12600.00
2019-01-27T09:34:13.328Z,13988.00
2019-01-27T09:35:12.120Z,15332.00
2019-01-27T09:36:11.906Z,16224.00
2019-01-27T09:37:12.396Z,15648.00
2019-01-27T09:38:13.008Z,15124.00
2019-01-27T09:39:11.919Z,14380.00
2019-01-27T09:40:12.151Z,12604.00
2019-01-27T09:41:11.865Z,11608.00
2019-01-27T09:42:14.074Z,11048.00
2019-01-27T09:43:11.833Z,10748.00
2019-01-27T09:44:11.887Z,10376.00
2019-01-27T09:45:11.817Z,10464.00
2019-01-27T09:46:12.325Z,10152.00
2019-01-27T09:47:11.792Z,9528.00
2019-01-27T09:48:11.781Z,8904.00
2019-01-27T09:49:11.780Z,8728.00
2019-01-27T09:50:11.817Z,8676.00
2019-01-27T09:51:11.762Z,8456.00
2019-01-27T09:52:12.076Z,9320.00
2019-01-27T09:53:11.753Z,9728.00
2019-01-27T09:54:11.722Z,8764.00
2019-01-27T09:55:12.008Z,7972.00
2019-01-27T09:56:11.686Z,7800.00
2019-01-27T09:57:12.167Z,7948.00
2019-01-27T09:58:12.070Z,7656.00
2019-01-27T09:59:11.729Z,8484.00
2019-01-27T10:00:11.648Z,7912.00
2019-01-27T10:01:11.651Z,7128.00
2019-01-27T10:02:11.620Z,6516.00
2019-01-27T10:03:12.009Z,6172.00
2019-01-27T10:04:15.515Z,5672.00
2019-01-27T10:05:12.282Z,4784.00
2019-01-27T10:06:11.947Z,4352.00
2019-01-27T10:07:13.616Z,4460.00
2019-01-27T10:08:12.155Z,4764.00
2019-01-27T10:09:11.573Z,5800.00
2019-01-27T10:10:11.572Z,5764.00
2019-01-27T10:11:18.152Z,6376.00
2019-01-27T10:12:12.077Z,5980.00
2019-01-27T10:13:11.635Z,5312.00
2019-01-27T10:14:11.948Z,5816.00
2019-01-27T10:15:11.882Z,5640.00
2019-01-27T10:16:15.291Z,6336.00
2019-01-27T10:17:12.227Z,5732.00
2019-01-27T10:18:11.561Z,5480.00
2019-01-27T10:19:11.525Z,6192.00
2019-01-27T10:20:11.427Z,6468.00
2019-01-27T10:21:11.448Z,5712.00
2019-01-27T10:22:11.401Z,5340.00
2019-01-27T10:23:19.189Z,5032.00
2019-01-27T10:24:11.833Z,4904.00
2019-01-27T10:25:15.982Z,5432.00
2019-01-27T10:26:11.362Z,7208.00
2019-01-27T10:27:11.689Z,7952.00
2019-01-27T10:28:11.344Z,7376.00
2019-01-27T10:29:11.548Z,7700.00
2019-01-27T10:30:11.314Z,8176.00
2019-01-27T10:31:12.251Z,9012.00
2019-01-27T10:32:11.755Z,11352.00
2019-01-27T10:33:12.374Z,12632.00
2019-01-27T10:34:11.273Z,11436.00
2019-01-27T10:35:11.500Z,9752.00
2019-01-27T10:36:13.536Z,8508.00
2019-01-27T10:37:13.633Z,7248.00
2019-01-27T10:38:11.886Z,6880.00
2019-01-27T10:39:11.222Z,7156.00
2019-01-27T10:40:11.325Z,7272.00
2019-01-27T10:41:11.199Z,7568.00
2019-01-27T10:42:11.176Z,8924.00
2019-01-27T10:43:14.466Z,7836.00
2019-01-27T10:44:12.362Z,7000.00
2019-01-27T10:45:11.205Z,6556.00
2019-01-27T10:46:12.113Z,6400.00
2019-01-27T10:47:11.129Z,4864.00
2019-01-27T10:48:11.293Z,4052.00
2019-01-27T10:49:11.920Z,3748.00
2019-01-27T10:50:12.238Z,3812.00
2019-01-27T10:51:11.134Z,4124.00
2019-01-27T10:52:11.069Z,4020.00
2019-01-27T10:53:11.971Z,4120.00
2019-01-27T10:54:11.103Z,4212.00
2019-01-27T10:55:11.255Z,4704.00
2019-01-27T10:56:11.394Z,4956.00
2019-01-27T10:57:11.195Z,5164.00
2019-01-27T10:58:11.582Z,5564.00
2019-01-27T10:59:13.038Z,5248.00
2019-01-27T11:00:11.769Z,5548.00
2019-01-27T11:01:11.838Z,5684.00
2019-01-27T11:02:10.960Z,5060.00
2019-01-27T11:03:11.480Z,5096.00
2019-01-27T11:04:10.947Z,4980.00
2019-01-27T11:05:10.979Z,4140.00
2019-01-27T11:06:11.453Z,3936.00
2019-01-27T11:07:15.393Z,3660.00
2019-01-27T11:08:11.546Z,3576.00
2019-01-27T11:09:10.887Z,3504.00
2019-01-27T11:10:11.722Z,3612.00
2019-01-27T11:11:11.056Z,4200.00
2019-01-27T11:12:12.138Z,4340.00
2019-01-27T11:13:13.093Z,4216.00
2019-01-27T11:14:13.200Z,4032.00
2019-01-27T11:15:13.696Z,3968.00
2019-01-27T11:16:11.068Z,4248.00
2019-01-27T11:17:21.246Z,4496.00
2019-01-27T11:18:16.055Z,4968.00
2019-01-27T11:19:11.447Z,4460.00
2019-01-27T11:20:11.606Z,4292.00
2019-01-27T11:21:11.418Z,4424.00
2019-01-27T11:22:11.199Z,6056.00
2019-01-27T11:23:11.108Z,7116.00
2019-01-27T11:24:14.108Z,6468.00
2019-01-27T11:25:10.990Z,5612.00
2019-01-27T11:26:13.678Z,6868.00
2019-01-27T11:27:10.941Z,7748.00
2019-01-27T11:28:11.252Z,8308.00
2019-01-27T11:29:17.503Z,7504.00
2019-01-27T11:30:10.702Z,7088.00
2019-01-27T11:31:11.430Z,5432.00
2019-01-27T11:32:10.925Z,4964.00
2019-01-27T11:33:10.630Z,4864.00
2019-01-27T11:34:11.793Z,5624.00
2019-01-27T11:35:14.550Z,6156.00
2019-01-27T11:36:10.605Z,6816.00
2019-01-27T11:37:11.588Z,6996.00
2019-01-27T11:38:11.283Z,7236.00
2019-01-27T11:39:10.549Z,7952.00
2019-01-27T11:40:10.762Z,8096.00
2019-01-27T11:41:12.618Z,8616.00
2019-01-27T11:42:11.017Z,8456.00
2019-01-27T11:43:11.147Z,8336.00
2019-01-27T11:44:10.510Z,8368.00
2019-01-27T11:45:10.652Z,9796.00
2019-01-27T11:46:10.611Z,12368.00
2019-01-27T11:47:11.258Z,15160.00
2019-01-27T11:48:11.029Z,17440.00
2019-01-27T11:49:10.811Z,17152.00
2019-01-27T11:50:10.441Z,16672.00
2019-01-27T11:51:10.572Z,15532.00
2019-01-27T11:52:15.442Z,14660.00
2019-01-27T11:53:11.834Z,13516.00
2019-01-27T11:54:10.676Z,11820.00
2019-01-27T11:55:10.391Z,9380.00
2019-01-27T11:56:11.273Z,7356.00
2019-01-27T11:57:10.954Z,6468.00
2019-01-27T11:58:10.702Z,6320.00
2019-01-27T11:59:10.975Z,6220.00
2019-01-27T12:00:10.606Z,5748.00
2019-01-27T12:01:10.332Z,5120.00
2019-01-27T12:02:10.776Z,4560.00
2019-01-27T12:03:10.743Z,3952.00
2019-01-27T12:04:10.541Z,3592.00
2019-01-27T12:05:12.638Z,3376.00
2019-01-27T12:06:16.610Z,3280.00
2019-01-27T12:07:10.264Z,3072.00
2019-01-27T12:08:10.276Z,2932.00
2019-01-27T12:09:11.475Z,2896.00
2019-01-27T12:10:10.229Z,2872.00
2019-01-27T12:11:12.012Z,2972.00
2019-01-27T12:12:10.193Z,2992.00
2019-01-27T12:13:10.179Z,3076.00
2019-01-27T12:14:10.171Z,3600.00
2019-01-27T12:15:10.173Z,4144.00
2019-01-27T12:16:10.340Z,4148.00
2019-01-27T12:17:19.687Z,4132.00
2019-01-27T12:19:16.953Z,4464.00
2019-01-27T12:20:16.923Z,4560.00
2019-01-27T12:21:16.910Z,4328.00
2019-01-27T12:22:16.918Z,4104.00
2019-01-27T12:23:16.904Z,3824.00
2019-01-27T12:24:16.929Z,3828.00
2019-01-27T12:25:16.871Z,4364.00
2019-01-27T12:26:16.858Z,4900.00
2019-01-27T12:27:16.853Z,4848.00
2019-01-27T12:28:16.854Z,4412.00
2019-01-27T12:29:16.828Z,3768.00
2019-01-27T12:30:16.849Z,3476.00
2019-01-27T12:31:16.807Z,2984.00
2019-01-27T12:32:16.792Z,2804.00
2019-01-27T12:33:17.372Z,2860.00
2019-01-27T12:34:16.769Z,2724.00
2019-01-27T12:35:16.759Z,2680.00
2019-01-27T12:36:16.764Z,2720.00
2019-01-27T12:37:16.736Z,2956.00
2019-01-27T12:38:16.729Z,3596.00
2019-01-27T12:39:16.712Z,4368.00
2019-01-27T12:40:16.705Z,5024.00
2019-01-27T12:41:16.706Z,5868.00
2019-01-27T12:42:16.786Z,6516.00
2019-01-27T12:43:16.685Z,6880.00
2019-01-27T12:44:16.665Z,7096.00